createdAt,value
2022-08-16T00:02:00.033Z,14.28
2022-08-16T00:04:31.244Z,14.22
2022-08-16T00:07:01.606Z,14.20
2022-08-16T00:09:33.421Z,14.22
2022-08-16T00:12:07.619Z,14.22
2022-08-16T00:14:38.562Z,14.17
2022-08-16T00:17:18.533Z,14.16
2022-08-16T00:19:53.765Z,14.13
2022-08-16T00:22:25.686Z,14.10
2022-08-16T00:24:58.594Z,14.07
2022-08-16T00:27:30.856Z,14.06
2022-08-16T00:30:19.148Z,14.08
2022-08-16T00:32:57.115Z,14.06
2022-08-16T00:35:34.888Z,14.05
2022-08-16T00:38:40.185Z,14.03
2022-08-16T00:40:58.475Z,14.01
2022-08-16T00:43:42.583Z,14.04
2022-08-16T00:46:34.365Z,13.99
2022-08-16T00:52:50.467Z,13.95
2022-08-16T00:55:22.917Z,13.87
2022-08-16T00:57:59.903Z,13.65
2022-08-16T01:00:33.928Z,13.50
2022-08-16T01:03:11.719Z,13.42
2022-08-16T01:05:44.171Z,13.33
2022-08-16T01:08:36.249Z,13.33
2022-08-16T01:11:08.945Z,13.34
2022-08-16T01:13:41.635Z,13.30
2022-08-16T01:16:20.083Z,13.25
2022-08-16T01:18:57.162Z,13.25
2022-08-16T01:21:39.793Z,13.35
2022-08-16T01:24:53.722Z,13.47
2022-08-16T01:27:29.272Z,13.63
2022-08-16T01:30:04.305Z,13.60
2022-08-16T01:32:38.992Z,13.58
2022-08-16T01:35:17.642Z,13.60
2022-08-16T01:37:54.089Z,13.67
2022-08-16T01:40:31.687Z,13.61
2022-08-16T01:43:01.852Z,13.53
2022-08-16T01:45:39.828Z,13.52
2022-08-16T01:48:19.619Z,13.50
2022-08-16T01:51:07.955Z,13.58
2022-08-16T01:53:40.603Z,13.58
2022-08-16T01:56:24.748Z,13.63
2022-08-16T01:58:58.772Z,13.58
2022-08-16T02:01:29.887Z,13.59
2022-08-16T02:04:10.868Z,13.64
2022-08-16T02:06:46.630Z,13.61
2022-08-16T02:09:18.582Z,13.60
2022-08-16T02:11:54.106Z,13.61
2022-08-16T02:14:27.461Z,13.63
2022-08-16T02:16:58.846Z,13.69
2022-08-16T02:19:59.305Z,13.55
2022-08-16T02:22:34.735Z,13.36
2022-08-16T02:25:14.822Z,13.30
2022-08-16T02:27:50.889Z,13.35
2022-08-16T02:30:35.985Z,13.30
2022-08-16T02:33:15.453Z,13.35
2022-08-16T02:35:53.854Z,13.41
2022-08-16T02:38:28.186Z,13.51
2022-08-16T02:40:59.029Z,13.44
2022-08-16T02:43:34.062Z,13.36
2022-08-16T02:46:07.636Z,13.30
2022-08-16T02:48:49.075Z,13.29
2022-08-16T02:51:23.420Z,13.34
2022-08-16T02:53:54.705Z,13.45
2022-08-16T02:56:32.128Z,13.30
2022-08-16T02:59:11.615Z,13.19
2022-08-16T03:01:44.899Z,13.12
2022-08-16T03:04:41.185Z,13.10
2022-08-16T03:07:06.440Z,13.14
2022-08-16T03:09:36.867Z,13.12
2022-08-16T03:12:08.802Z,13.10
2022-08-16T03:14:40.789Z,13.03
2022-08-16T03:17:12.502Z,12.93
2022-08-16T03:19:47.877Z,12.87
2022-08-16T03:22:30.902Z,12.84
2022-08-16T03:25:03.213Z,12.89
2022-08-16T03:27:34.820Z,12.93
2022-08-16T03:30:15.974Z,12.99
2022-08-16T03:32:51.943Z,13.11
2022-08-16T03:35:32.994Z,13.23
2022-08-16T03:38:32.587Z,13.23
2022-08-16T03:40:57.785Z,13.26
2022-08-16T03:43:50.616Z,13.30
2022-08-16T03:46:44.894Z,13.29
2022-08-16T03:49:13.247Z,13.40
2022-08-16T03:53:43.195Z,13.40
2022-08-16T03:56:20.047Z,13.43
2022-08-16T03:58:52.500Z,13.45
2022-08-16T04:01:24.026Z,13.46
2022-08-16T04:03:59.702Z,13.49
2022-08-16T04:06:31.010Z,13.49
2022-08-16T04:09:02.429Z,13.55
2022-08-16T04:11:36.708Z,13.55
2022-08-16T04:14:32.557Z,13.59
2022-08-16T04:16:58.122Z,13.57
2022-08-16T04:19:31.709Z,13.56
2022-08-16T04:22:02.345Z,13.62
2022-08-16T04:24:40.619Z,13.63
2022-08-16T04:27:11.022Z,13.63
2022-08-16T04:29:44.150Z,13.64
2022-08-16T04:32:16.682Z,13.71
2022-08-16T04:34:50.126Z,13.72
2022-08-16T04:37:21.955Z,13.79
2022-08-16T04:39:55.292Z,13.98
2022-08-16T04:42:29.823Z,14.12
2022-08-16T04:45:07.305Z,14.32
2022-08-16T04:47:37.925Z,14.51
2022-08-16T04:50:14.522Z,14.68
2022-08-16T04:52:48.040Z,14.90
2022-08-16T04:55:31.846Z,15.08
2022-08-16T04:58:44.781Z,15.30
2022-08-16T05:01:01.108Z,15.58
2022-08-16T05:03:32.583Z,15.79
2022-08-16T05:06:05.204Z,15.98
2022-08-16T05:08:39.441Z,16.19
2022-08-16T05:11:20.583Z,16.38
2022-08-16T05:13:51.914Z,16.54
2022-08-16T05:16:27.448Z,16.72
2022-08-16T05:19:03.503Z,16.92
2022-08-16T05:21:38.388Z,17.09
2022-08-16T05:24:09.729Z,17.28
2022-08-16T05:26:43.519Z,17.49
2022-08-16T05:29:21.467Z,17.69
2022-08-16T05:31:52.922Z,17.88
2022-08-16T05:34:23.403Z,18.09
2022-08-16T05:36:58.686Z,18.30
2022-08-16T05:39:30.528Z,18.45
2022-08-16T05:42:05.068Z,18.63
2022-08-16T05:44:35.683Z,18.80
2022-08-16T05:47:06.006Z,18.99
2022-08-16T05:49:39.861Z,19.19
2022-08-16T05:52:13.485Z,19.37
2022-08-16T05:55:00.927Z,19.59
2022-08-16T05:57:34.496Z,19.86
2022-08-16T06:00:10.481Z,20.08
2022-08-16T06:02:40.690Z,20.30
2022-08-16T06:05:11.971Z,20.54
2022-08-16T06:07:44.702Z,20.76
2022-08-16T06:10:32.242Z,21.00
2022-08-16T06:13:04.869Z,21.20
2022-08-16T06:15:35.365Z,21.41
2022-08-16T06:18:07.026Z,21.61
2022-08-16T06:20:37.669Z,21.81
2022-08-16T06:23:27.806Z,22.05
2022-08-16T06:26:02.622Z,22.32
2022-08-16T06:28:39.182Z,22.53
2022-08-16T06:31:12.333Z,22.67
2022-08-16T06:33:44.646Z,22.78
2022-08-16T06:36:17.320Z,22.97
2022-08-16T06:38:56.085Z,23.16
2022-08-16T06:41:27.538Z,23.37
2022-08-16T06:43:59.314Z,23.54
2022-08-16T06:46:34.647Z,23.60
2022-08-16T06:49:10.806Z,23.75
2022-08-16T06:53:41.823Z,24.04
2022-08-16T06:56:14.206Z,24.18
2022-08-16T06:58:54.985Z,24.26
2022-08-16T07:01:44.997Z,24.38
2022-08-16T07:04:31.649Z,24.52
2022-08-16T07:07:02.952Z,24.65
2022-08-16T07:09:34.903Z,24.64
2022-08-16T07:12:06.105Z,24.68
2022-08-16T07:14:36.925Z,24.81
2022-08-16T07:17:11.325Z,24.98
2022-08-16T07:20:03.214Z,25.14
2022-08-16T07:22:37.345Z,25.33
2022-08-16T07:25:25.645Z,25.46
2022-08-16T07:27:55.849Z,25.56
2022-08-16T07:30:39.396Z,25.70
2022-08-16T07:33:20.300Z,25.85
2022-08-16T07:36:10.384Z,26.00
2022-08-16T07:38:40.716Z,26.10
2022-08-16T07:41:13.786Z,26.21
2022-08-16T07:43:47.494Z,26.36
2022-08-16T07:46:37.784Z,26.43
2022-08-16T07:49:11.251Z,26.42
2022-08-16T07:51:42.446Z,26.49
2022-08-16T07:54:21.262Z,26.55
2022-08-16T07:56:53.116Z,26.66
2022-08-16T07:59:24.971Z,26.74
2022-08-16T08:02:13.229Z,26.82
2022-08-16T08:04:51.216Z,26.66
2022-08-16T08:07:21.585Z,26.54
2022-08-16T08:09:52.607Z,26.79
2022-08-16T08:12:43.705Z,26.89
2022-08-16T08:15:14.826Z,27.01
2022-08-16T08:17:55.606Z,27.10
2022-08-16T08:20:33.837Z,27.23
2022-08-16T08:23:04.993Z,27.31
2022-08-16T08:25:53.947Z,27.27
2022-08-16T08:28:26.762Z,27.17
2022-08-16T08:31:01.655Z,27.18
2022-08-16T08:33:33.977Z,27.24
2022-08-16T08:36:08.855Z,27.29
2022-08-16T08:38:45.188Z,27.31
2022-08-16T08:41:19.045Z,27.33
2022-08-16T08:43:51.468Z,27.49
2022-08-16T08:46:22.566Z,27.66
2022-08-16T08:48:59.584Z,27.79
2022-08-16T08:51:36.821Z,28.05
2022-08-16T08:54:09.738Z,28.16
2022-08-16T08:56:45.403Z,28.26
2022-08-16T08:59:20.456Z,28.27
2022-08-16T09:01:57.208Z,28.35
2022-08-16T09:04:30.149Z,28.39
2022-08-16T09:07:01.232Z,28.34
2022-08-16T09:09:33.610Z,28.50
2022-08-16T09:12:06.939Z,28.56
2022-08-16T09:14:49.317Z,28.66
2022-08-16T09:17:38.275Z,28.74
2022-08-16T09:20:16.584Z,28.89
2022-08-16T09:22:51.337Z,28.84
2022-08-16T09:25:26.357Z,28.78
2022-08-16T09:28:09.412Z,28.63
2022-08-16T09:30:44.053Z,28.67
2022-08-16T09:33:20.056Z,28.72
2022-08-16T09:35:54.366Z,28.80
2022-08-16T09:38:31.902Z,28.88
2022-08-16T09:41:06.482Z,28.99
2022-08-16T09:43:59.519Z,29.08
2022-08-16T09:46:45.306Z,29.05
2022-08-16T09:49:20.313Z,29.16
2022-08-16T09:53:43.253Z,29.18
2022-08-16T09:56:26.709Z,29.25
2022-08-16T09:59:03.591Z,29.41
2022-08-16T10:01:36.752Z,29.37
2022-08-16T10:04:32.975Z,29.30
2022-08-16T10:09:54.080Z,29.53
2022-08-16T10:12:45.965Z,29.55
2022-08-16T10:15:21.614Z,29.36
2022-08-16T10:18:00.196Z,29.34
2022-08-16T10:20:35.262Z,29.51
2022-08-16T10:23:08.416Z,29.59
2022-08-16T10:27:18.631Z,29.64
2022-08-16T10:28:40.345Z,29.24
2022-08-16T10:31:16.719Z,29.12
2022-08-16T10:34:05.162Z,29.29
2022-08-16T10:36:55.207Z,29.20
2022-08-16T10:39:25.382Z,29.06
2022-08-16T10:41:57.105Z,28.83
2022-08-16T10:44:29.206Z,28.58
2022-08-16T10:46:59.483Z,28.52
2022-08-16T10:49:32.709Z,28.59
2022-08-16T10:52:18.027Z,28.85
2022-08-16T10:57:41.666Z,29.06
2022-08-16T11:00:22.525Z,29.15
2022-08-16T11:02:58.304Z,29.28
2022-08-16T11:05:59.061Z,29.45
2022-08-16T11:08:35.916Z,29.56
2022-08-16T11:11:16.912Z,29.74
2022-08-16T11:14:11.087Z,29.50
2022-08-16T11:19:33.597Z,29.35
2022-08-16T11:22:47.268Z,29.53
2022-08-16T11:25:59.617Z,29.71
2022-08-16T11:28:06.164Z,29.95
2022-08-16T11:30:39.618Z,30.12
2022-08-16T11:33:11.463Z,30.33
2022-08-16T11:35:44.097Z,30.39
2022-08-16T11:38:47.665Z,30.33
2022-08-16T11:41:07.621Z,30.37
2022-08-16T11:43:42.105Z,30.40
2022-08-16T11:46:43.639Z,30.44
2022-08-16T11:49:13.449Z,30.51
2022-08-16T11:51:45.902Z,30.74
2022-08-16T11:54:20.452Z,30.78
2022-08-16T11:56:57.304Z,30.36
2022-08-16T11:59:29.696Z,30.03
2022-08-16T12:02:11.570Z,29.91
2022-08-16T12:04:52.162Z,29.95
2022-08-16T12:07:24.940Z,30.09
2022-08-16T12:09:54.933Z,30.34
2022-08-16T12:12:28.507Z,30.58
2022-08-16T12:15:00.071Z,30.71
2022-08-16T12:17:33.368Z,30.75
2022-08-16T12:20:07.602Z,30.84
2022-08-16T12:22:38.463Z,30.91
2022-08-16T12:25:12.421Z,31.04
2022-08-16T12:27:43.105Z,30.68
2022-08-16T12:30:26.464Z,30.23
2022-08-16T12:33:04.266Z,29.68
2022-08-16T12:35:38.844Z,29.37
2022-08-16T12:38:40.767Z,29.15
2022-08-16T12:41:00.530Z,28.98
2022-08-16T12:43:31.984Z,28.80
2022-08-16T12:46:02.291Z,28.58
2022-08-16T12:48:53.661Z,28.74
2022-08-16T12:53:42.222Z,29.62
2022-08-16T12:56:14.102Z,29.74
2022-08-16T12:58:50.560Z,29.89
2022-08-16T13:01:25.038Z,30.04
2022-08-16T13:04:11.428Z,30.10
2022-08-16T13:06:44.674Z,29.91
2022-08-16T13:09:23.651Z,29.96
2022-08-16T13:12:03.489Z,30.07
2022-08-16T13:14:38.485Z,30.10
2022-08-16T13:17:18.784Z,30.26
2022-08-16T13:22:42.839Z,30.39
2022-08-16T13:25:21.295Z,30.27
2022-08-16T13:28:02.368Z,30.08
2022-08-16T13:30:41.075Z,30.07
2022-08-16T13:33:16.484Z,30.24
2022-08-16T13:35:56.245Z,30.31
2022-08-16T13:38:32.677Z,30.28
2022-08-16T13:41:11.305Z,30.19
2022-08-16T13:43:43.522Z,30.08
2022-08-16T13:46:13.706Z,29.99
2022-08-16T13:48:45.131Z,29.85
2022-08-16T13:51:17.532Z,29.67
2022-08-16T13:53:54.506Z,29.46
2022-08-16T13:56:37.923Z,29.34
2022-08-16T13:59:19.530Z,29.19
2022-08-16T14:01:55.079Z,28.94
2022-08-16T14:04:31.556Z,28.70
2022-08-16T14:07:03.874Z,28.56
2022-08-16T14:09:36.885Z,28.38
2022-08-16T14:12:21.285Z,28.16
2022-08-16T14:14:56.334Z,27.92
2022-08-16T14:17:29.866Z,27.67
2022-08-16T14:20:14.476Z,27.43
2022-08-16T14:22:52.383Z,27.28
2022-08-16T14:25:26.831Z,27.16
2022-08-16T14:27:58.841Z,27.02
2022-08-16T14:30:29.797Z,26.85
2022-08-16T14:33:00.494Z,26.74
2022-08-16T14:35:48.504Z,26.61
2022-08-16T14:38:23.928Z,26.51
2022-08-16T14:40:54.959Z,26.48
2022-08-16T14:43:29.762Z,26.44
2022-08-16T14:46:01.244Z,26.48
2022-08-16T14:48:31.949Z,26.55
2022-08-16T14:51:03.227Z,26.70
2022-08-16T14:53:33.321Z,26.84
2022-08-16T14:56:03.415Z,26.88
2022-08-16T14:58:38.064Z,26.83
2022-08-16T15:01:09.715Z,26.85
2022-08-16T15:03:44.454Z,26.79
2022-08-16T15:06:16.277Z,26.67
2022-08-16T15:08:46.868Z,26.65
2022-08-16T15:11:16.843Z,26.60
2022-08-16T15:13:49.430Z,26.67
2022-08-16T15:16:21.606Z,26.66
2022-08-16T15:19:00.051Z,26.66
2022-08-16T15:21:31.547Z,26.67
2022-08-16T15:24:02.449Z,26.66
2022-08-16T15:26:45.303Z,26.68
2022-08-16T15:29:19.267Z,26.62
2022-08-16T15:31:49.466Z,26.60
2022-08-16T15:34:32.021Z,26.63
2022-08-16T15:37:03.182Z,26.61
2022-08-16T15:39:39.401Z,26.51
2022-08-16T15:42:15.631Z,26.43
2022-08-16T15:44:59.152Z,26.33
2022-08-16T15:47:29.244Z,26.20
2022-08-16T15:49:59.584Z,26.07
2022-08-16T15:53:41.948Z,26.01
2022-08-16T15:56:13.385Z,25.99
2022-08-16T15:58:43.911Z,25.95
2022-08-16T16:01:21.764Z,25.93
2022-08-16T16:03:53.985Z,26.03
2022-08-16T16:06:28.825Z,26.12
2022-08-16T16:09:00.706Z,26.10
2022-08-16T16:11:31.237Z,26.07
2022-08-16T16:14:01.664Z,26.03
2022-08-16T16:16:36.290Z,26.08
2022-08-16T16:19:06.542Z,26.07
2022-08-16T16:21:37.633Z,26.00
2022-08-16T16:24:21.544Z,25.94
2022-08-16T16:26:55.187Z,25.84
2022-08-16T16:29:26.342Z,25.70
2022-08-16T16:31:59.490Z,25.59
2022-08-16T16:34:32.137Z,25.46
2022-08-16T16:37:03.562Z,25.33
2022-08-16T16:39:35.996Z,25.23
2022-08-16T16:42:06.422Z,25.11
2022-08-16T16:44:40.984Z,25.03
2022-08-16T16:47:21.201Z,25.02
2022-08-16T16:49:51.245Z,24.92
2022-08-16T16:52:43.367Z,24.83
2022-08-16T16:55:16.903Z,24.76
2022-08-16T16:58:04.021Z,24.71
2022-08-16T17:00:38.626Z,24.58
2022-08-16T17:03:17.050Z,24.46
2022-08-16T17:05:57.348Z,24.32
2022-08-16T17:08:31.085Z,24.18
2022-08-16T17:11:03.008Z,24.20
2022-08-16T17:13:34.810Z,24.25
2022-08-16T17:16:05.226Z,24.15
2022-08-16T17:19:16.626Z,24.07
2022-08-16T17:21:26.301Z,24.04
2022-08-16T17:24:00.495Z,24.07
2022-08-16T17:26:34.304Z,24.09
2022-08-16T17:29:11.124Z,24.06
2022-08-16T17:34:32.024Z,23.93
2022-08-16T17:37:08.038Z,23.51
2022-08-16T17:39:27.057Z,23.94
2022-08-16T17:39:54.794Z,23.30
2022-08-16T17:42:31.043Z,23.34
2022-08-16T17:45:01.570Z,23.29
2022-08-16T17:47:31.602Z,22.91
2022-08-16T17:50:02.407Z,22.60
2022-08-16T17:52:32.584Z,22.40
2022-08-16T17:55:08.656Z,22.15
2022-08-16T17:57:40.168Z,21.84
2022-08-16T18:00:18.280Z,21.79
2022-08-16T18:02:52.705Z,21.66
2022-08-16T18:05:23.144Z,21.56
2022-08-16T18:07:53.927Z,21.45
2022-08-16T18:10:32.761Z,21.33
2022-08-16T18:13:05.268Z,21.20
2022-08-16T18:15:38.162Z,21.09
2022-08-16T18:18:08.980Z,21.01
2022-08-16T18:20:56.254Z,20.79
2022-08-16T18:23:29.128Z,20.75
2022-08-16T18:26:01.545Z,20.78
2022-08-16T18:28:35.485Z,20.76
2022-08-16T18:31:08.006Z,20.73
2022-08-16T18:33:43.530Z,20.68
2022-08-16T18:36:20.893Z,20.62
2022-08-16T18:38:52.288Z,20.48
2022-08-16T18:41:24.687Z,20.17
2022-08-16T18:44:25.443Z,20.00
2022-08-16T18:46:50.997Z,19.89
2022-08-16T18:49:22.442Z,19.94
2022-08-16T18:53:41.388Z,19.97
2022-08-16T18:56:11.724Z,19.92
2022-08-16T18:58:42.657Z,19.78
2022-08-16T19:01:12.874Z,19.79
2022-08-16T19:03:43.165Z,19.80
2022-08-16T19:06:17.407Z,19.70
2022-08-16T19:08:49.071Z,19.70
2022-08-16T19:11:23.749Z,19.68
2022-08-16T19:13:54.132Z,19.63
2022-08-16T19:16:24.691Z,19.59
2022-08-16T19:18:54.683Z,19.45
2022-08-16T19:21:24.834Z,19.34
2022-08-16T19:23:56.738Z,19.25
2022-08-16T19:26:27.946Z,19.09
2022-08-16T19:28:59.846Z,18.99
2022-08-16T19:31:37.135Z,19.07
2022-08-16T19:34:08.714Z,19.03
2022-08-16T19:36:41.282Z,18.98
2022-08-16T19:39:17.182Z,18.86
2022-08-16T19:41:52.105Z,18.80
2022-08-16T19:44:24.746Z,18.78
2022-08-16T19:46:55.210Z,18.72
2022-08-16T19:49:25.374Z,18.72
2022-08-16T19:51:55.594Z,18.73
2022-08-16T19:54:27.224Z,18.70
2022-08-16T19:56:57.387Z,18.66
2022-08-16T19:59:40.407Z,18.55
2022-08-16T20:02:35.664Z,18.29
2022-08-16T20:05:08.405Z,18.21
2022-08-16T20:07:38.484Z,18.07
2022-08-16T20:10:11.947Z,18.12
2022-08-16T20:12:42.003Z,18.23
2022-08-16T20:15:16.567Z,18.30
2022-08-16T20:17:48.695Z,18.29
2022-08-16T20:20:23.348Z,18.26
2022-08-16T20:22:57.944Z,18.25
2022-08-16T20:25:33.411Z,18.20
2022-08-16T20:28:11.543Z,18.11
2022-08-16T20:31:02.767Z,18.03
2022-08-16T20:33:32.832Z,17.97
2022-08-16T20:36:02.855Z,17.90
2022-08-16T20:38:35.724Z,17.82
2022-08-16T20:41:07.484Z,17.76
2022-08-16T20:43:37.836Z,17.58
2022-08-16T20:46:08.430Z,17.49
2022-08-16T20:48:38.486Z,17.40
2022-08-16T20:51:10.918Z,17.35
2022-08-16T20:53:41.865Z,17.37
2022-08-16T20:56:14.309Z,17.38
2022-08-16T20:58:44.464Z,17.38
2022-08-16T21:01:14.448Z,17.38
2022-08-16T21:03:45.031Z,17.38
2022-08-16T21:06:16.512Z,17.27
2022-08-16T21:08:51.636Z,17.21
2022-08-16T21:11:28.491Z,17.18
2022-08-16T21:14:00.781Z,17.07
2022-08-16T21:16:32.607Z,17.04
2022-08-16T21:19:02.949Z,17.00
2022-08-16T21:21:33.758Z,16.99
2022-08-16T21:24:04.939Z,16.97
2022-08-16T21:26:39.039Z,16.99
2022-08-16T21:29:14.207Z,16.95
2022-08-16T21:31:47.455Z,16.88
2022-08-16T21:34:17.716Z,16.84
2022-08-16T21:36:49.111Z,16.78
2022-08-16T21:39:19.610Z,16.71
2022-08-16T21:41:51.356Z,16.70
2022-08-16T21:44:21.586Z,16.68
2022-08-16T21:46:52.134Z,16.60
2022-08-16T21:49:22.503Z,16.49
2022-08-16T21:53:42.158Z,16.38
2022-08-16T21:56:16.774Z,16.42
2022-08-16T21:58:52.976Z,16.42
2022-08-16T22:01:24.842Z,16.41
2022-08-16T22:04:01.619Z,16.40
2022-08-16T22:06:48.288Z,16.37
2022-08-16T22:09:24.603Z,16.33
2022-08-16T22:11:54.630Z,16.27
2022-08-16T22:14:24.765Z,16.17
2022-08-16T22:16:55.971Z,16.08
2022-08-16T22:19:26.665Z,16.12
2022-08-16T22:21:57.070Z,16.07
2022-08-16T22:24:28.605Z,16.11
2022-08-16T22:26:58.609Z,16.14
2022-08-16T22:29:28.761Z,16.16
2022-08-16T22:31:59.068Z,16.13
2022-08-16T22:34:29.148Z,16.13
2022-08-16T22:36:59.356Z,16.15
2022-08-16T22:39:31.866Z,16.12
2022-08-16T22:42:08.936Z,16.07
2022-08-16T22:44:45.663Z,16.02
2022-08-16T22:47:16.346Z,16.02
2022-08-16T22:49:48.328Z,16.06
2022-08-16T22:52:40.983Z,15.96
2022-08-16T22:55:11.224Z,15.92
2022-08-16T22:57:41.147Z,15.85
2022-08-16T23:00:16.191Z,15.87
2022-08-16T23:03:03.195Z,15.79
2022-08-16T23:05:39.266Z,15.84
2022-08-16T23:08:12.723Z,15.83
2022-08-16T23:10:45.468Z,15.80
2022-08-16T23:13:17.428Z,15.82
2022-08-16T23:15:52.142Z,15.82
2022-08-16T23:18:26.816Z,15.81
2022-08-16T23:21:00.694Z,15.81
2022-08-16T23:23:31.713Z,15.81
2022-08-16T23:26:44.188Z,15.85
2022-08-16T23:28:53.509Z,15.91
2022-08-16T23:31:24.075Z,15.92
2022-08-16T23:33:54.206Z,15.93
2022-08-16T23:36:24.283Z,15.85
2022-08-16T23:38:54.353Z,15.86
2022-08-16T23:41:25.927Z,15.87
2022-08-16T23:43:55.906Z,15.86
2022-08-16T23:46:25.985Z,15.80
2022-08-16T23:50:00.233Z,15.78
2022-08-16T23:51:46.083Z,15.77
2022-08-16T23:54:16.006Z,15.75
2022-08-16T23:56:47.857Z,15.73
2022-08-16T23:59:18.064Z,15.73
